QFA940 YPPH-YBBN
Flight info
| Callsign | QFA940 |
|---|---|
| Flight time | N/A |
| Altitude | 35000 |
| Route | PH Y31 LAKIR Y69 BOSLI Y67 KG J141 RUSAD/N0464F370 J141 LEC T33 ANROM Y62 IGDIT Y27 BN |
| Aircraft | B738/M-SDE2E3FGHIRWXY/LB1 |
Departure
| Time | 2026-04-30 09:53 |
|---|---|
| Airport | Perth International Airport (YPPH) |
Arrival
| Time | N/A |
|---|---|
| Airport | Brisbane International Airport (YBBN) |
| Time | Latitude | Longitude | Altitude | Speed | Heading |
|---|---|---|---|---|---|
| 2026-04-30 09:38 | -31.93340 | 115.96210 | 57 ft | 0 kts | 284° |
| 2026-04-30 09:43 | -31.93341 | 115.96216 | 67 ft | 4 kts | 286° |
| 2026-04-30 09:43 | -31.93352 | 115.96243 | 58 ft | 4 kts | 319° |
| 2026-04-30 09:44 | -31.93374 | 115.96254 | 65 ft | 4 kts | 5° |
| 2026-04-30 09:44 | -31.93388 | 115.96251 | 62 ft | 1 kts | 17° |
| 2026-04-30 09:48 | -31.93386 | 115.96256 | 62 ft | 2 kts | 59° |
| 2026-04-30 09:48 | -31.93374 | 115.96296 | 65 ft | 7 kts | 57° |
| 2026-04-30 09:49 | -31.93332 | 115.96320 | 65 ft | 8 kts | 13° |
| 2026-04-30 09:49 | -31.93274 | 115.96331 | 62 ft | 9 kts | 4° |
| 2026-04-30 09:49 | -31.93210 | 115.96331 | 62 ft | 10 kts | 6° |
| 2026-04-30 09:49 | -31.93139 | 115.96357 | 66 ft | 10 kts | 36° |
| 2026-04-30 09:50 | -31.93087 | 115.96413 | 64 ft | 10 kts | 48° |
| 2026-04-30 09:50 | -31.93043 | 115.96470 | 65 ft | 9 kts | 48° |
| 2026-04-30 09:50 | -31.93002 | 115.96523 | 65 ft | 8 kts | 48° |
| 2026-04-30 09:50 | -31.92966 | 115.96568 | 62 ft | 6 kts | 39° |
| 2026-04-30 09:51 | -31.92931 | 115.96589 | 63 ft | 5 kts | 19° |
| 2026-04-30 09:51 | -31.92900 | 115.96599 | 62 ft | 4 kts | 15° |
| 2026-04-30 09:51 | -31.92874 | 115.96607 | 67 ft | 4 kts | 14° |
| 2026-04-30 09:51 | -31.92850 | 115.96628 | 67 ft | 6 kts | 53° |
| 2026-04-30 09:52 | -31.92845 | 115.96681 | 67 ft | 9 kts | 99° |
| 2026-04-30 09:52 | -31.92861 | 115.96753 | 65 ft | 9 kts | 103° |
| 2026-04-30 09:52 | -31.92883 | 115.96817 | 63 ft | 8 kts | 129° |
| 2026-04-30 09:52 | -31.92923 | 115.96827 | 64 ft | 0 kts | 190° |
| 2026-04-30 09:53 | -31.92930 | 115.96826 | 63 ft | 9 kts | 191° |
| 2026-04-30 09:53 | -31.93296 | 115.96722 | 60 ft | 98 kts | 194° |
| 2026-04-30 09:53 | -31.94208 | 115.96449 | 179 ft | 164 kts | 195° |
| 2026-04-30 09:53 | -31.95367 | 115.96127 | 1121 ft | 170 kts | 193° |
| 2026-04-30 09:54 | -31.96488 | 115.95840 | 2478 ft | 159 kts | 191° |
| 2026-04-30 09:54 | -31.97592 | 115.95616 | 3407 ft | 165 kts | 189° |
| 2026-04-30 09:54 | -31.98798 | 115.95376 | 3866 ft | 186 kts | 191° |
| 2026-04-30 09:54 | -32.00121 | 115.95154 | 4354 ft | 199 kts | 182° |
| 2026-04-30 09:55 | -32.01548 | 115.95543 | 4635 ft | 227 kts | 159° |
| 2026-04-30 09:55 | -32.02944 | 115.96661 | 4868 ft | 260 kts | 136° |
| 2026-04-30 09:55 | -32.03920 | 115.98524 | 5535 ft | 277 kts | 113° |
| 2026-04-30 09:55 | -32.05540 | 116.05264 | 7869 ft | 296 kts | 108° |
| 2026-04-30 09:56 | -32.07289 | 116.12971 | 10263 ft | 314 kts | 108° |
| 2026-04-30 09:56 | -32.07891 | 116.15537 | 10542 ft | 337 kts | 108° |
| 2026-04-30 09:56 | -32.08489 | 116.18312 | 10725 ft | 362 kts | 100° |
| 2026-04-30 09:56 | -32.08331 | 116.21356 | 10885 ft | 386 kts | 72° |
| 2026-04-30 09:57 | -32.07035 | 116.24151 | 11314 ft | 395 kts | 48° |
| 2026-04-30 09:57 | -32.01917 | 116.30466 | 13191 ft | 401 kts | 44° |
| 2026-04-30 09:57 | -31.95095 | 116.38848 | 15176 ft | 417 kts | 45° |
| 2026-04-30 09:57 | -31.89915 | 116.45310 | 16673 ft | 425 kts | 44° |
| 2026-04-30 09:58 | -31.81646 | 116.55578 | 18775 ft | 440 kts | 44° |
| 2026-04-30 09:58 | -31.75726 | 116.62908 | 20006 ft | 450 kts | 43° |
| 2026-04-30 09:58 | -31.68444 | 116.71891 | 21566 ft | 459 kts | 43° |
| 2026-04-30 09:58 | -31.59505 | 116.82880 | 23243 ft | 471 kts | 43° |
| 2026-04-30 09:59 | -31.54172 | 116.90488 | 24160 ft | 484 kts | 58° |
| 2026-04-30 09:59 | -31.43325 | 117.15643 | 26404 ft | 500 kts | 60° |
| 2026-04-30 10:00 | -31.30333 | 117.45049 | 28627 ft | 515 kts | 60° |
| 2026-04-30 10:00 | -31.26332 | 117.54093 | 29584 ft | 513 kts | 60° |
| 2026-04-30 10:01 | -31.14306 | 117.83734 | 31725 ft | 519 kts | 60° |
| 2026-04-30 10:01 | -31.08071 | 117.98932 | 32778 ft | 520 kts | 59° |
| 2026-04-30 10:01 | -31.01864 | 118.13974 | 33567 ft | 526 kts | 59° |
| 2026-04-30 10:02 | -30.98690 | 118.21664 | 34045 ft | 526 kts | 58° |
| 2026-04-30 10:02 | -30.97103 | 118.25505 | 34292 ft | 525 kts | 58° |
| 2026-04-30 10:02 | -30.95520 | 118.29334 | 34574 ft | 524 kts | 58° |
| 2026-04-30 10:02 | -30.93942 | 118.33146 | 34853 ft | 522 kts | 58° |
| 2026-04-30 10:03 | -30.92364 | 118.36948 | 35036 ft | 522 kts | 58° |
| 2026-04-30 10:03 | -30.81154 | 118.63852 | 35034 ft | 535 kts | 58° |
| 2026-04-30 10:04 | -30.72836 | 118.84075 | 35018 ft | 531 kts | 66° |
| 2026-04-30 10:04 | -30.71271 | 118.92429 | 35021 ft | 532 kts | 84° |
| 2026-04-30 10:05 | -30.70089 | 119.23612 | 35038 ft | 531 kts | 84° |
| 2026-04-30 10:05 | -30.68472 | 119.57630 | 35000 ft | 530 kts | 84° |
| 2026-04-30 10:06 | -30.66792 | 119.91825 | 35017 ft | 530 kts | 84° |
| 2026-04-30 10:06 | -30.65019 | 120.25977 | 35005 ft | 529 kts | 84° |
| 2026-04-30 10:07 | -30.63159 | 120.60069 | 35025 ft | 528 kts | 83° |
| 2026-04-30 10:07 | -30.61698 | 120.86490 | 34995 ft | 530 kts | 88° |
| 2026-04-30 10:08 | -30.62645 | 120.94975 | 35013 ft | 532 kts | 106° |
| 2026-04-30 10:08 | -30.68860 | 121.13823 | 35012 ft | 531 kts | 112° |
| 2026-04-30 10:09 | -30.77851 | 121.41751 | 34972 ft | 532 kts | 109° |
| 2026-04-30 10:09 | -30.79346 | 121.50140 | 34959 ft | 530 kts | 91° |
| 2026-04-30 10:10 | -30.80233 | 121.81775 | 34967 ft | 530 kts | 90° |
| 2026-04-30 10:10 | -30.81354 | 122.15998 | 34982 ft | 529 kts | 90° |
| 2026-04-30 10:11 | -30.82348 | 122.50181 | 35008 ft | 529 kts | 89° |
| 2026-04-30 10:11 | -30.83111 | 122.78611 | 34991 ft | 529 kts | 89° |
| 2026-04-30 10:12 | -30.84076 | 123.18530 | 35005 ft | 527 kts | 89° |
| 2026-04-30 10:12 | -30.84804 | 123.52681 | 34979 ft | 527 kts | 89° |
| 2026-04-30 10:13 | -30.85300 | 123.79318 | 34982 ft | 526 kts | 88° |
| 2026-04-30 10:13 | -30.85837 | 124.13354 | 34983 ft | 525 kts | 88° |
| 2026-04-30 10:14 | -30.86216 | 124.41542 | 34974 ft | 524 kts | 89° |
| 2026-04-30 10:14 | -30.86744 | 124.92350 | 34989 ft | 523 kts | 88° |
| 2026-04-30 10:15 | -30.87018 | 125.31745 | 34968 ft | 525 kts | 88° |
| 2026-04-30 10:15 | -30.87158 | 125.65805 | 34985 ft | 526 kts | 88° |
| 2026-04-30 10:16 | -30.87202 | 125.88099 | 34980 ft | 527 kts | 88° |
| 2026-04-30 10:17 | -30.87149 | 126.38118 | 34970 ft | 529 kts | 87° |
| 2026-04-30 10:17 | -30.86895 | 126.89256 | 34999 ft | 529 kts | 87° |
| 2026-04-30 10:18 | -30.86613 | 127.23500 | 34974 ft | 529 kts | 87° |
| 2026-04-30 10:19 | -30.86021 | 127.74880 | 34975 ft | 529 kts | 86° |
| 2026-04-30 10:19 | -30.85521 | 128.08676 | 34975 ft | 529 kts | 86° |
| 2026-04-30 10:20 | -30.85840 | 128.36011 | 35001 ft | 530 kts | 89° |
| 2026-04-30 10:20 | -30.86437 | 128.87522 | 35003 ft | 531 kts | 88° |
| 2026-04-30 10:21 | -30.86708 | 129.21958 | 34979 ft | 531 kts | 88° |
| 2026-04-30 10:21 | -30.86885 | 129.56306 | 34993 ft | 531 kts | 87° |
| 2026-04-30 10:22 | -30.86969 | 129.90573 | 35000 ft | 529 kts | 88° |
| 2026-04-30 10:22 | -30.86964 | 130.24755 | 34999 ft | 527 kts | 88° |
| 2026-04-30 10:23 | -30.86871 | 130.58571 | 35000 ft | 525 kts | 88° |
| 2026-04-30 10:23 | -30.86689 | 130.92505 | 34989 ft | 524 kts | 88° |
| 2026-04-30 10:24 | -30.86418 | 131.26433 | 34996 ft | 523 kts | 88° |
| 2026-04-30 10:24 | -30.86060 | 131.60307 | 34995 ft | 524 kts | 88° |
| 2026-04-30 10:25 | -30.85715 | 131.86944 | 35030 ft | 524 kts | 88° |
| 2026-04-30 10:25 | -30.85189 | 132.20847 | 35020 ft | 524 kts | 88° |
| 2026-04-30 10:26 | -30.84575 | 132.54724 | 35041 ft | 524 kts | 88° |
| 2026-04-30 10:26 | -30.83873 | 132.88604 | 35066 ft | 523 kts | 88° |
| 2026-04-30 10:27 | -30.83084 | 133.22402 | 35055 ft | 522 kts | 88° |
| 2026-04-30 10:27 | -30.82209 | 133.56120 | 35064 ft | 520 kts | 87° |
| 2026-04-30 10:28 | -30.81474 | 133.82330 | 35093 ft | 518 kts | 87° |
| 2026-04-30 10:28 | -30.80466 | 134.15738 | 35090 ft | 516 kts | 87° |
| 2026-04-30 10:29 | -30.79376 | 134.49005 | 35102 ft | 514 kts | 87° |
| 2026-04-30 10:29 | -30.78204 | 134.82187 | 35111 ft | 513 kts | 87° |
| 2026-04-30 10:30 | -30.76947 | 135.15364 | 35114 ft | 513 kts | 87° |
| 2026-04-30 10:30 | -30.75616 | 135.48271 | 35143 ft | 513 kts | 87° |
| 2026-04-30 10:31 | -30.74192 | 135.81412 | 35152 ft | 513 kts | 87° |
| 2026-04-30 10:31 | -30.72684 | 136.14545 | 35139 ft | 513 kts | 87° |
| 2026-04-30 10:32 | -30.71091 | 136.47667 | 35138 ft | 513 kts | 87° |
| 2026-04-30 10:32 | -30.69418 | 136.80718 | 35173 ft | 512 kts | 87° |
| 2026-04-30 10:33 | -30.67664 | 137.13706 | 35160 ft | 511 kts | 86° |
| 2026-04-30 10:33 | -30.65831 | 137.46600 | 35182 ft | 510 kts | 86° |
| 2026-04-30 10:34 | -30.63916 | 137.79456 | 35166 ft | 510 kts | 86° |
| 2026-04-30 10:34 | -30.61922 | 138.12250 | 35192 ft | 509 kts | 86° |
| 2026-04-30 10:35 | -30.59956 | 138.43344 | 35214 ft | 508 kts | 86° |
| 2026-04-30 10:35 | -30.57969 | 138.70309 | 35231 ft | 506 kts | 85° |
| 2026-04-30 10:36 | -30.55479 | 139.02807 | 35233 ft | 504 kts | 85° |
| 2026-04-30 10:36 | -30.52925 | 139.35161 | 35214 ft | 503 kts | 85° |
| 2026-04-30 10:37 | -30.50297 | 139.67415 | 35204 ft | 502 kts | 84° |
| 2026-04-30 10:37 | -30.47594 | 139.99605 | 35213 ft | 501 kts | 84° |
| 2026-04-30 10:38 | -30.44833 | 140.31534 | 35207 ft | 501 kts | 84° |
| 2026-04-30 10:38 | -30.41980 | 140.63600 | 35211 ft | 501 kts | 84° |
| 2026-04-30 10:39 | -30.39046 | 140.95691 | 35227 ft | 501 kts | 84° |
| 2026-04-30 10:39 | -30.36034 | 141.27758 | 35235 ft | 501 kts | 84° |
| 2026-04-30 10:40 | -30.33652 | 141.52702 | 35240 ft | 502 kts | 84° |
| 2026-04-30 10:40 | -30.30520 | 141.84869 | 35249 ft | 503 kts | 83° |
| 2026-04-30 10:41 | -30.27303 | 142.17052 | 35240 ft | 504 kts | 83° |
| 2026-04-30 10:41 | -30.24002 | 142.49271 | 35251 ft | 505 kts | 83° |
| 2026-04-30 10:42 | -30.20615 | 142.81535 | 35265 ft | 506 kts | 83° |
| 2026-04-30 10:42 | -30.17374 | 143.11728 | 35266 ft | 508 kts | 83° |
| 2026-04-30 10:43 | -30.14362 | 143.39107 | 35272 ft | 508 kts | 83° |
| 2026-04-30 10:43 | -30.10741 | 143.71359 | 35254 ft | 505 kts | 83° |
| 2026-04-30 10:44 | -30.07063 | 144.03408 | 35263 ft | 502 kts | 82° |
| 2026-04-30 10:44 | -30.03319 | 144.35320 | 35283 ft | 501 kts | 82° |
| 2026-04-30 10:45 | -29.99518 | 144.67057 | 35280 ft | 497 kts | 81° |
| 2026-04-30 10:45 | -29.95672 | 144.98510 | 35281 ft | 494 kts | 81° |
| 2026-04-30 10:46 | -29.91794 | 145.29601 | 35282 ft | 486 kts | 81° |
| 2026-04-30 10:46 | -29.89121 | 145.51759 | 35285 ft | 485 kts | 85° |
| 2026-04-30 10:47 | -29.87456 | 145.82587 | 35291 ft | 480 kts | 85° |
| 2026-04-30 10:47 | -29.85601 | 146.13232 | 35298 ft | 478 kts | 85° |
| 2026-04-30 10:48 | -29.83704 | 146.43740 | 35300 ft | 476 kts | 85° |
| 2026-04-30 10:48 | -29.81740 | 146.74145 | 35288 ft | 475 kts | 85° |
| 2026-04-30 10:49 | -29.79713 | 147.04459 | 35294 ft | 475 kts | 85° |